createdAt,value
2023-05-21T00:01:45.757Z,103015.44
2023-05-21T00:04:15.712Z,103017.22
2023-05-21T00:06:45.100Z,103013.09
2023-05-21T00:09:13.747Z,103013.16
2023-05-21T00:11:41.760Z,103011.56
2023-05-21T00:14:09.839Z,103014.19
2023-05-21T00:16:38.381Z,103014.16
2023-05-21T00:19:06.451Z,103011.72
2023-05-21T00:21:34.349Z,103020.63
2023-05-21T00:24:03.622Z,103011.09
2023-05-21T00:26:31.576Z,103012.06
2023-05-21T00:28:59.561Z,103013.91
2023-05-21T00:31:27.590Z,103009.69
2023-05-21T00:33:55.526Z,103012.38
2023-05-21T00:36:24.186Z,103018.56
2023-05-21T00:38:52.600Z,103021.19
2023-05-21T00:41:23.085Z,103014.41
2023-05-21T00:43:51.030Z,103016.22
2023-05-21T00:46:21.020Z,103017.94
2023-05-21T00:48:50.514Z,103018.00
2023-05-21T00:51:21.946Z,103020.66
2023-05-21T00:53:52.576Z,103023.34
2023-05-21T00:56:24.114Z,103024.22
2023-05-21T00:58:52.924Z,103023.41
2023-05-21T01:01:21.113Z,103020.78
2023-05-21T01:03:49.174Z,103017.38
2023-05-21T01:06:17.207Z,103020.78
2023-05-21T01:08:45.508Z,103019.13
2023-05-21T01:11:15.075Z,103015.75
2023-05-21T01:13:46.085Z,103019.19
2023-05-21T01:16:14.694Z,103012.28
2023-05-21T01:18:45.332Z,103019.41
2023-05-21T01:21:13.713Z,103017.91
2023-05-21T01:23:43.314Z,103015.47
2023-05-21T01:26:12.921Z,103023.38
2023-05-21T01:28:40.854Z,103025.06
2023-05-21T01:31:20.937Z,103027.66
2023-05-21T01:33:51.102Z,103028.44
2023-05-21T01:36:24.168Z,103025.19
2023-05-21T01:39:01.511Z,103029.56
2023-05-21T01:41:34.343Z,103026.09
2023-05-21T01:44:03.538Z,103021.78
2023-05-21T01:46:34.731Z,103027.78
2023-05-21T01:49:03.806Z,103026.06
2023-05-21T01:51:32.046Z,103024.31
2023-05-21T01:54:01.489Z,103026.00
2023-05-21T01:56:29.633Z,103027.91
2023-05-21T01:58:59.699Z,103030.53
2023-05-21T02:01:30.210Z,103028.09
2023-05-21T02:03:58.513Z,103031.56
2023-05-21T02:06:26.513Z,103033.19
2023-05-21T02:08:55.670Z,103041.00
2023-05-21T02:11:25.059Z,103029.78
2023-05-21T02:13:54.537Z,103035.84
2023-05-21T02:16:22.676Z,103035.00
2023-05-21T02:18:52.308Z,103032.31
2023-05-21T02:21:21.231Z,103033.13
2023-05-21T02:23:49.179Z,103032.22
2023-05-21T02:26:17.870Z,103029.66
2023-05-21T02:28:47.201Z,103023.50
2023-05-21T02:31:15.077Z,103023.50
2023-05-21T02:33:43.493Z,103029.63
2023-05-21T02:36:13.226Z,103029.56
2023-05-21T02:38:43.803Z,103023.56
2023-05-21T02:41:12.226Z,103034.81
2023-05-21T02:43:40.222Z,103031.34
2023-05-21T02:46:09.730Z,103030.53
2023-05-21T02:48:37.707Z,103034.91
2023-05-21T02:51:05.713Z,103040.97
2023-05-21T02:53:33.819Z,103031.47
2023-05-21T02:56:01.761Z,103036.63
2023-05-21T02:58:29.718Z,103031.34
2023-05-21T03:00:57.687Z,103028.72
2023-05-21T03:03:27.157Z,103034.78
2023-05-21T03:05:55.234Z,103027.75
2023-05-21T03:08:23.298Z,103024.22
2023-05-21T03:10:51.302Z,103025.00
2023-05-21T03:13:19.304Z,103022.34
2023-05-21T03:15:47.649Z,103019.66
2023-05-21T03:18:15.564Z,103017.81
2023-05-21T03:20:45.502Z,103012.47
2023-05-21T03:23:16.464Z,103015.00
2023-05-21T03:25:46.119Z,103017.53
2023-05-21T03:28:14.208Z,103017.44
2023-05-21T03:30:42.105Z,103012.06
2023-05-21T03:33:11.234Z,103008.44
2023-05-21T03:35:42.459Z,103015.19
2023-05-21T03:38:11.865Z,103005.44
2023-05-21T03:40:39.783Z,103011.25
2023-05-21T03:43:07.743Z,103013.50
2023-05-21T03:45:36.692Z,103012.34
2023-05-21T03:48:05.763Z,103020.53
2023-05-21T03:50:33.629Z,103013.56
2023-05-21T03:53:02.117Z,103011.50
2023-05-21T03:55:31.413Z,103011.44
2023-05-21T03:57:59.308Z,103018.59
2023-05-21T04:00:27.222Z,103013.56
2023-05-21T04:02:55.436Z,103011.41
2023-05-21T04:05:23.487Z,103009.69
2023-05-21T04:07:51.575Z,103006.50
2023-05-21T04:10:19.605Z,103006.09
2023-05-21T04:12:52.666Z,103007.91
2023-05-21T04:15:20.852Z,103014.94
2023-05-21T04:17:50.358Z,103011.47
2023-05-21T04:20:18.596Z,103004.00
2023-05-21T04:22:46.634Z,103004.44
2023-05-21T04:25:14.648Z,102994.00
2023-05-21T04:27:43.596Z,102996.63
2023-05-21T04:30:13.775Z,102991.34
2023-05-21T04:32:41.880Z,102997.22
2023-05-21T04:35:10.273Z,102996.19
2023-05-21T04:37:42.219Z,102990.72
2023-05-21T04:40:11.187Z,102995.69
2023-05-21T04:42:39.191Z,102991.16
2023-05-21T04:45:07.819Z,102993.50
2023-05-21T04:47:37.803Z,102994.16
2023-05-21T04:50:06.717Z,102984.22
2023-05-21T04:52:34.983Z,102988.19
2023-05-21T04:55:02.990Z,102986.28
2023-05-21T04:57:30.949Z,102992.84
2023-05-21T04:59:58.934Z,102994.34
2023-05-21T05:02:26.851Z,102993.09
2023-05-21T05:04:56.797Z,102998.84
2023-05-21T05:07:24.700Z,102994.19
2023-05-21T05:09:52.546Z,102987.91
2023-05-21T05:12:20.484Z,102989.44
2023-05-21T05:14:48.424Z,102988.34
2023-05-21T05:17:16.437Z,102979.38
2023-05-21T05:19:46.335Z,102981.84
2023-05-21T05:22:15.884Z,102978.03
2023-05-21T05:24:43.784Z,102969.94
2023-05-21T05:27:11.719Z,102974.94
2023-05-21T05:29:39.672Z,102973.75
2023-05-21T05:32:08.904Z,102968.06
2023-05-21T05:34:36.871Z,102972.13
2023-05-21T05:37:05.015Z,102971.81
2023-05-21T05:39:34.369Z,102970.75
2023-05-21T05:42:03.489Z,102966.94
2023-05-21T05:44:31.346Z,102970.84
2023-05-21T05:46:59.309Z,102966.84
2023-05-21T05:49:27.252Z,102963.81
2023-05-21T05:51:55.151Z,102961.69
2023-05-21T05:54:23.099Z,102964.72
2023-05-21T05:56:52.344Z,102970.50
2023-05-21T05:59:20.307Z,102970.88
2023-05-21T06:01:48.287Z,102966.19
2023-05-21T06:04:16.395Z,102957.31
2023-05-21T06:06:44.362Z,102963.50
2023-05-21T06:09:12.323Z,102968.94
2023-05-21T06:11:40.323Z,102962.00
2023-05-21T06:14:09.618Z,102959.31
2023-05-21T06:16:37.556Z,102961.25
2023-05-21T06:19:05.756Z,102949.00
2023-05-21T06:21:33.901Z,102952.28
2023-05-21T06:24:01.821Z,102952.53
2023-05-21T06:26:29.759Z,102942.91
2023-05-21T06:28:57.688Z,102938.06
2023-05-21T06:31:27.009Z,102939.25
2023-05-21T06:33:55.292Z,102927.94
2023-05-21T06:36:23.256Z,102934.41
2023-05-21T06:38:51.103Z,102928.56
2023-05-21T06:41:19.050Z,102933.13
2023-05-21T06:43:46.978Z,102928.94
2023-05-21T06:46:15.014Z,102932.75
2023-05-21T06:48:45.925Z,102931.75
2023-05-21T06:51:13.902Z,102933.56
2023-05-21T06:53:41.872Z,102931.97
2023-05-21T06:56:09.865Z,102929.66
2023-05-21T06:58:37.788Z,102930.84
2023-05-21T07:01:05.991Z,102918.47
2023-05-21T07:03:34.033Z,102920.94
2023-05-21T07:06:03.553Z,102926.16
2023-05-21T07:08:31.451Z,102925.75
2023-05-21T07:10:59.369Z,102927.59
2023-05-21T07:13:27.305Z,102928.25
2023-05-21T07:15:55.337Z,102919.81
2023-05-21T07:18:23.476Z,102918.72
2023-05-21T07:20:51.442Z,102922.38
2023-05-21T07:23:21.340Z,102925.66
2023-05-21T07:25:49.377Z,102912.59
2023-05-21T07:28:17.345Z,102919.06
2023-05-21T07:30:45.284Z,102910.97
2023-05-21T07:33:13.777Z,102923.09
2023-05-21T07:35:42.124Z,102926.56
2023-05-21T07:38:10.094Z,102919.00
2023-05-21T07:40:39.417Z,102921.28
2023-05-21T07:43:07.377Z,102916.69
2023-05-21T07:45:35.523Z,102917.84
2023-05-21T07:48:03.729Z,102923.28
2023-05-21T07:50:31.766Z,102919.56
2023-05-21T07:52:59.773Z,102917.84
2023-05-21T07:55:27.775Z,102913.34
2023-05-21T07:57:57.234Z,102910.69
2023-05-21T08:00:25.854Z,102908.44
2023-05-21T08:02:53.937Z,102913.91
2023-05-21T08:05:23.566Z,102906.06
2023-05-21T08:07:51.547Z,102912.31
2023-05-21T08:10:19.791Z,102909.88
2023-05-21T08:12:47.695Z,102906.09
2023-05-21T08:15:17.129Z,102912.53
2023-05-21T08:17:45.055Z,102914.03
2023-05-21T08:20:14.489Z,102906.63
2023-05-21T08:22:43.702Z,102901.09
2023-05-21T08:25:11.762Z,102900.00
2023-05-21T08:27:39.656Z,102902.41
2023-05-21T08:30:10.452Z,102896.69
2023-05-21T08:32:39.901Z,102897.47
2023-05-21T08:35:08.777Z,102896.41
2023-05-21T08:37:36.816Z,102891.66
2023-05-21T08:40:06.085Z,102894.22
2023-05-21T08:42:40.620Z,102890.09
2023-05-21T08:45:09.764Z,102872.19
2023-05-21T08:47:41.464Z,102885.19
2023-05-21T08:50:12.144Z,102885.78
2023-05-21T08:52:40.528Z,102880.34
2023-05-21T08:55:10.279Z,102886.88
2023-05-21T08:57:39.221Z,102886.59
2023-05-21T09:00:08.775Z,102883.47
2023-05-21T09:02:40.783Z,102884.72
2023-05-21T09:05:11.440Z,102881.44
2023-05-21T09:07:45.128Z,102879.03
2023-05-21T09:10:14.684Z,102883.38
2023-05-21T09:12:43.241Z,102874.66
2023-05-21T09:15:12.025Z,102872.41
2023-05-21T09:17:39.898Z,102876.66
2023-05-21T09:20:12.437Z,102878.84
2023-05-21T09:22:43.287Z,102865.31
2023-05-21T09:25:11.902Z,102871.38
2023-05-21T09:27:40.625Z,102862.41
2023-05-21T09:30:12.161Z,102867.25
2023-05-21T09:32:40.304Z,102862.66
2023-05-21T09:35:12.141Z,102865.19
2023-05-21T09:37:40.759Z,102864.34
2023-05-21T09:40:13.798Z,102859.13
2023-05-21T09:42:42.425Z,102858.53
2023-05-21T09:45:11.460Z,102859.88
2023-05-21T09:47:44.470Z,102860.69
2023-05-21T09:50:14.580Z,102855.25
2023-05-21T09:52:42.574Z,102854.13
2023-05-21T09:55:13.413Z,102858.00
2023-05-21T09:57:45.070Z,102854.63
2023-05-21T10:00:20.198Z,102854.00
2023-05-21T10:02:49.537Z,102851.16
2023-05-21T10:05:18.982Z,102848.81
2023-05-21T10:07:51.414Z,102850.84
2023-05-21T10:10:22.790Z,102842.63
2023-05-21T10:12:56.531Z,102836.31
2023-05-21T10:15:25.959Z,102841.88
2023-05-21T10:17:56.320Z,102842.00
2023-05-21T10:20:25.587Z,102834.97
2023-05-21T10:22:54.443Z,102838.69
2023-05-21T10:25:23.088Z,102832.91
2023-05-21T10:27:51.056Z,102832.53
2023-05-21T10:30:19.822Z,102825.78
2023-05-21T10:32:49.235Z,102830.84
2023-05-21T10:35:17.850Z,102819.31
2023-05-21T10:37:47.278Z,102819.66
2023-05-21T10:40:15.674Z,102811.53
2023-05-21T10:43:12.492Z,102814.41
2023-05-21T10:45:55.370Z,102807.97
2023-05-21T10:48:52.029Z,102802.88
2023-05-21T10:51:24.952Z,102808.56
2023-05-21T10:54:28.654Z,102803.34
2023-05-21T10:57:06.188Z,102806.50
2023-05-21T10:59:41.556Z,102800.91
2023-05-21T11:02:12.682Z,102794.59
2023-05-21T11:04:43.400Z,102794.84
2023-05-21T11:07:13.297Z,102798.50
2023-05-21T11:09:42.648Z,102796.09
2023-05-21T11:12:12.941Z,102794.50
2023-05-21T11:14:43.130Z,102796.78
2023-05-21T11:17:14.852Z,102784.97
2023-05-21T11:19:44.442Z,102784.09
2023-05-21T11:22:23.216Z,102786.25
2023-05-21T11:24:53.638Z,102785.88
2023-05-21T11:27:34.588Z,102787.09
2023-05-21T11:30:06.670Z,102780.75
2023-05-21T11:32:38.896Z,102778.25
2023-05-21T11:35:08.218Z,102773.78
2023-05-21T11:37:37.838Z,102770.13
2023-05-21T11:40:21.595Z,102769.22
2023-05-21T11:42:52.083Z,102770.66
2023-05-21T11:45:20.478Z,102765.00
2023-05-21T11:47:49.440Z,102762.66
2023-05-21T11:50:18.286Z,102763.22
2023-05-21T11:52:46.722Z,102761.41
2023-05-21T11:55:16.273Z,102765.22
2023-05-21T11:57:48.026Z,102758.78
2023-05-21T12:00:17.310Z,102763.03
2023-05-21T12:02:47.440Z,102759.72
2023-05-21T12:05:15.801Z,102758.13
2023-05-21T12:07:43.950Z,102753.53
2023-05-21T12:10:13.177Z,102751.31
2023-05-21T12:12:53.913Z,102758.41
2023-05-21T12:15:26.396Z,102753.31
2023-05-21T12:17:54.371Z,102756.31
2023-05-21T12:20:23.309Z,102746.81
2023-05-21T12:22:51.340Z,102740.91
2023-05-21T12:25:21.261Z,102744.66
2023-05-21T12:27:52.802Z,102744.53
2023-05-21T12:30:23.160Z,102736.25
2023-05-21T12:32:52.549Z,102733.31
2023-05-21T12:35:24.984Z,102732.31
2023-05-21T12:37:53.291Z,102730.66
2023-05-21T12:40:22.319Z,102734.78
2023-05-21T12:42:51.731Z,102724.78
2023-05-21T12:45:22.111Z,102725.84
2023-05-21T12:47:56.035Z,102728.25
2023-05-21T12:50:25.787Z,102722.94
2023-05-21T12:52:57.173Z,102717.31
2023-05-21T12:55:26.500Z,102712.53
2023-05-21T12:58:03.693Z,102713.13
2023-05-21T13:00:33.161Z,102724.69
2023-05-21T13:03:02.031Z,102727.28
2023-05-21T13:05:31.800Z,102722.66
2023-05-21T13:07:59.878Z,102716.06
2023-05-21T13:10:27.806Z,102708.47
2023-05-21T13:12:55.816Z,102717.50
2023-05-21T13:15:23.821Z,102713.88
2023-05-21T13:17:53.186Z,102716.69
2023-05-21T13:20:26.550Z,102715.16
2023-05-21T13:22:56.217Z,102714.56
2023-05-21T13:25:29.073Z,102712.72
2023-05-21T13:27:58.091Z,102708.09
2023-05-21T13:30:26.314Z,102708.94
2023-05-21T13:32:54.646Z,102713.47
2023-05-21T13:35:22.976Z,102708.00
2023-05-21T13:37:50.933Z,102700.66
2023-05-21T13:40:20.408Z,102707.09
2023-05-21T13:42:50.017Z,102708.78
2023-05-21T13:45:19.903Z,102703.88
2023-05-21T13:47:49.047Z,102695.13
2023-05-21T13:50:17.715Z,102699.78
2023-05-21T13:52:46.343Z,102706.50
2023-05-21T13:55:15.877Z,102698.25
2023-05-21T13:57:46.039Z,102693.88
2023-05-21T14:00:16.139Z,102696.16
2023-05-21T14:02:45.344Z,102693.91
2023-05-21T14:05:13.776Z,102695.75
2023-05-21T14:07:42.165Z,102700.66
2023-05-21T14:10:11.250Z,102691.91
2023-05-21T14:12:39.183Z,102690.09
2023-05-21T14:15:09.332Z,102691.22
2023-05-21T14:17:37.326Z,102692.34
2023-05-21T14:20:06.333Z,102686.44
2023-05-21T14:22:34.279Z,102682.66
2023-05-21T14:25:03.201Z,102677.47
2023-05-21T14:27:31.107Z,102675.63
2023-05-21T14:29:59.044Z,102671.00
2023-05-21T14:32:28.470Z,102673.81
2023-05-21T14:34:56.827Z,102669.47
2023-05-21T14:37:24.764Z,102668.19
2023-05-21T14:39:52.720Z,102671.00
2023-05-21T14:42:20.649Z,102670.28
2023-05-21T14:44:49.214Z,102667.59
2023-05-21T14:47:17.254Z,102662.81
2023-05-21T14:49:46.728Z,102660.44
2023-05-21T14:52:14.661Z,102653.72
2023-05-21T14:54:42.662Z,102657.34
2023-05-21T14:57:10.826Z,102655.81
2023-05-21T14:59:38.777Z,102648.78
2023-05-21T15:02:06.983Z,102647.53
2023-05-21T15:04:35.025Z,102652.41
2023-05-21T15:07:04.424Z,102658.19
2023-05-21T15:09:32.295Z,102650.78
2023-05-21T15:12:00.292Z,102653.59
2023-05-21T15:14:28.187Z,102649.47
2023-05-21T15:16:56.119Z,102652.28
2023-05-21T15:19:24.147Z,102650.19
2023-05-21T15:21:52.572Z,102650.06
2023-05-21T15:24:21.929Z,102646.94
2023-05-21T15:26:49.886Z,102649.19
2023-05-21T15:29:17.788Z,102646.66
2023-05-21T15:31:45.679Z,102644.28
2023-05-21T15:34:13.767Z,102642.72
2023-05-21T15:36:41.962Z,102641.75
2023-05-21T15:39:09.926Z,102641.34
2023-05-21T15:41:39.213Z,102640.47
2023-05-21T15:44:07.159Z,102633.47
2023-05-21T15:46:35.249Z,102632.63
2023-05-21T15:49:03.219Z,102635.69
2023-05-21T15:51:31.284Z,102628.25
2023-05-21T15:53:59.200Z,102623.91
2023-05-21T15:56:27.416Z,102626.72
2023-05-21T15:58:58.695Z,102628.25
2023-05-21T16:01:28.175Z,102619.69
2023-05-21T16:03:56.338Z,102623.34
2023-05-21T16:06:24.337Z,102621.81
2023-05-21T16:08:52.308Z,102624.75
2023-05-21T16:11:20.334Z,102624.88
2023-05-21T16:13:48.227Z,102618.81
2023-05-21T16:16:17.565Z,102617.84
2023-05-21T16:18:45.598Z,102613.59
2023-05-21T16:21:13.918Z,102611.91
2023-05-21T16:23:42.007Z,102614.47
2023-05-21T16:26:10.800Z,102609.25
2023-05-21T16:28:39.019Z,102610.63
2023-05-21T16:31:07.128Z,102609.22
2023-05-21T16:33:36.517Z,102610.06
2023-05-21T16:36:04.483Z,102606.81
2023-05-21T16:38:32.566Z,102603.28
2023-05-21T16:41:00.676Z,102603.56
2023-05-21T16:43:28.611Z,102602.88
2023-05-21T16:45:56.454Z,102603.84
2023-05-21T16:48:24.349Z,102599.63
2023-05-21T16:50:53.645Z,102605.81
2023-05-21T16:53:21.789Z,102600.19
2023-05-21T16:55:49.864Z,102601.88
2023-05-21T16:58:19.086Z,102599.34
2023-05-21T17:00:47.389Z,102602.28
2023-05-21T17:03:16.136Z,102607.63
2023-05-21T17:05:44.330Z,102596.25
2023-05-21T17:08:13.624Z,102598.03
2023-05-21T17:10:41.474Z,102593.25
2023-05-21T17:13:18.316Z,102589.19
2023-05-21T17:15:50.892Z,102593.66
2023-05-21T17:18:19.150Z,102593.94
2023-05-21T17:20:47.078Z,102594.19
2023-05-21T17:23:16.610Z,102596.44
2023-05-21T17:25:45.859Z,102591.25
2023-05-21T17:28:13.875Z,102597.94
2023-05-21T17:30:41.845Z,102608.03
2023-05-21T17:33:10.522Z,102592.31
2023-05-21T17:35:38.981Z,102598.88
2023-05-21T17:38:07.288Z,102600.69
2023-05-21T17:40:36.690Z,102597.19
2023-05-21T17:43:07.222Z,102598.66
2023-05-21T17:45:35.663Z,102604.50
2023-05-21T17:48:04.015Z,102608.28
2023-05-21T17:50:32.028Z,102604.44
2023-05-21T17:53:00.456Z,102611.16
2023-05-21T17:55:28.377Z,102605.22
2023-05-21T17:57:57.660Z,102597.63
2023-05-21T18:00:25.862Z,102600.41
2023-05-21T18:02:53.874Z,102594.19
2023-05-21T18:05:22.826Z,102591.34
2023-05-21T18:07:51.174Z,102590.88
2023-05-21T18:10:19.179Z,102590.41
2023-05-21T18:12:47.274Z,102589.38
2023-05-21T18:15:17.233Z,102589.41
2023-05-21T18:17:45.544Z,102589.75
2023-05-21T18:20:14.869Z,102594.75
2023-05-21T18:22:42.865Z,102596.94
2023-05-21T18:25:11.389Z,102596.63
2023-05-21T18:27:39.344Z,102599.91
2023-05-21T18:30:08.645Z,102598.44
2023-05-21T18:32:39.456Z,102600.78
2023-05-21T18:35:11.154Z,102605.34
2023-05-21T18:37:42.169Z,102609.25
2023-05-21T18:40:11.256Z,102611.91
2023-05-21T18:42:39.174Z,102618.69
2023-05-21T18:45:08.001Z,102613.72
2023-05-21T18:47:39.075Z,102612.66
2023-05-21T18:50:08.940Z,102625.44
2023-05-21T18:52:36.991Z,102625.03
2023-05-21T18:55:05.606Z,102625.63
2023-05-21T18:57:35.080Z,102636.50
2023-05-21T19:00:03.393Z,102624.81
2023-05-21T19:02:31.643Z,102632.16
2023-05-21T19:05:01.968Z,102626.81
2023-05-21T19:07:30.135Z,102625.31
2023-05-21T19:10:00.201Z,102636.78
2023-05-21T19:12:29.504Z,102634.47
2023-05-21T19:14:57.742Z,102634.91
2023-05-21T19:17:25.997Z,102637.19
2023-05-21T19:19:56.238Z,102643.03
2023-05-21T19:22:26.994Z,102637.56
2023-05-21T19:24:55.640Z,102634.50
2023-05-21T19:27:23.933Z,102646.53
2023-05-21T19:29:52.853Z,102645.25
2023-05-21T19:32:23.761Z,102646.78
2023-05-21T19:34:52.331Z,102652.97
2023-05-21T19:37:20.728Z,102655.34
2023-05-21T19:39:50.533Z,102650.91
2023-05-21T19:42:21.638Z,102650.06
2023-05-21T19:44:50.003Z,102650.78
2023-05-21T19:47:18.193Z,102653.97
2023-05-21T19:49:46.573Z,102659.94
2023-05-21T19:52:14.571Z,102651.88
2023-05-21T19:54:42.707Z,102655.47
2023-05-21T19:57:13.324Z,102655.22
2023-05-21T19:59:41.284Z,102664.44
2023-05-21T20:02:13.313Z,102659.78
2023-05-21T20:04:41.563Z,102645.97
2023-05-21T20:07:09.481Z,102652.75
2023-05-21T20:09:37.474Z,102656.88
2023-05-21T20:12:06.219Z,102666.56
2023-05-21T20:14:35.673Z,102659.34
2023-05-21T20:17:05.621Z,102667.56
2023-05-21T20:19:33.971Z,102662.84
2023-05-21T20:22:02.057Z,102670.16
2023-05-21T20:24:29.948Z,102662.63
2023-05-21T20:26:57.957Z,102667.72
2023-05-21T20:29:26.026Z,102663.97
2023-05-21T20:31:55.374Z,102675.00
2023-05-21T20:34:24.589Z,102671.25
2023-05-21T20:36:52.828Z,102663.72
2023-05-21T20:39:22.134Z,102664.94
2023-05-21T20:41:50.230Z,102660.09
2023-05-21T20:44:18.871Z,102664.91
2023-05-21T20:46:47.773Z,102661.78
2023-05-21T20:49:17.790Z,102664.78
2023-05-21T20:51:45.824Z,102667.50
2023-05-21T20:54:14.162Z,102661.50
2023-05-21T20:56:44.992Z,102663.28
2023-05-21T20:59:13.044Z,102660.91
2023-05-21T21:01:41.736Z,102667.13
2023-05-21T21:04:09.964Z,102669.19
2023-05-21T21:06:40.362Z,102666.53
2023-05-21T21:09:08.561Z,102670.09
2023-05-21T21:11:37.007Z,102665.88
2023-05-21T21:14:05.051Z,102660.78
2023-05-21T21:16:33.142Z,102664.53
2023-05-21T21:19:01.571Z,102663.06
2023-05-21T21:21:29.886Z,102666.16
2023-05-21T21:23:59.283Z,102666.47
2023-05-21T21:26:27.338Z,102662.41
2023-05-21T21:28:56.337Z,102669.63
2023-05-21T21:31:25.077Z,102669.63
2023-05-21T21:33:53.287Z,102674.56
2023-05-21T21:36:21.376Z,102672.84
2023-05-21T21:38:49.390Z,102673.88
2023-05-21T21:41:20.392Z,102669.72
2023-05-21T21:43:48.352Z,102672.00
2023-05-21T21:46:16.723Z,102670.72
2023-05-21T21:48:44.838Z,102672.84
2023-05-21T21:51:14.064Z,102674.72
2023-05-21T21:53:42.165Z,102669.72
2023-05-21T21:56:10.446Z,102677.84
2023-05-21T21:58:39.797Z,102676.56
2023-05-21T22:01:07.760Z,102680.59
2023-05-21T22:03:35.791Z,102679.25
2023-05-21T22:06:03.837Z,102682.28
2023-05-21T22:08:31.791Z,102680.81
2023-05-21T22:11:01.939Z,102679.41
2023-05-21T22:13:30.254Z,102677.28
2023-05-21T22:15:59.680Z,102677.38
2023-05-21T22:18:38.924Z,102673.88
2023-05-21T22:21:10.030Z,102677.59
2023-05-21T22:23:38.932Z,102669.84
2023-05-21T22:26:07.210Z,102672.63
2023-05-21T22:28:35.219Z,102671.22
2023-05-21T22:31:04.951Z,102674.06
2023-05-21T22:33:32.975Z,102675.25
2023-05-21T22:36:02.226Z,102671.31
2023-05-21T22:38:30.145Z,102673.47
2023-05-21T22:40:58.119Z,102679.97
2023-05-21T22:43:26.958Z,102674.06
2023-05-21T22:45:54.827Z,102680.41
2023-05-21T22:48:24.143Z,102679.78
2023-05-21T22:50:53.622Z,102685.53
2023-05-21T22:53:21.864Z,102679.19
2023-05-21T22:55:50.104Z,102678.00
2023-05-21T22:58:18.433Z,102678.50
2023-05-21T23:00:46.915Z,102680.56
2023-05-21T23:03:14.885Z,102684.19
2023-05-21T23:05:44.488Z,102679.72
2023-05-21T23:08:12.735Z,102680.63
2023-05-21T23:10:40.992Z,102666.94
2023-05-21T23:13:09.340Z,102678.34
2023-05-21T23:15:38.884Z,102673.88
2023-05-21T23:18:07.762Z,102665.16
2023-05-21T23:20:36.701Z,102666.09
2023-05-21T23:23:08.939Z,102668.28
2023-05-21T23:25:36.931Z,102664.47
2023-05-21T23:28:04.959Z,102675.03
2023-05-21T23:30:32.891Z,102674.34
2023-05-21T23:33:01.170Z,102675.47
2023-05-21T23:35:29.315Z,102673.63
2023-05-21T23:37:57.273Z,102664.06
2023-05-21T23:40:26.821Z,102669.53
2023-05-21T23:42:54.785Z,102676.59
2023-05-21T23:45:22.815Z,102670.69
2023-05-21T23:47:50.797Z,102671.81
2023-05-21T23:50:18.907Z,102670.91
2023-05-21T23:52:46.882Z,102666.66
2023-05-21T23:55:14.932Z,102668.69
2023-05-21T23:57:44.361Z,102669.81
